Charles City, IA (50616)

1:43 PM CDT on April 24, 2017 (GMT -0500)
Charles City Municipal | | Change Station
Active Advisory: Special Statement Active Notice: Public Information Statement

Elev 1122 ft 43.07 °N, 92.61 °W | Updated 8 minutes ago

Clear
Clear
70 °F
Feels Like 70 °F
N
29
Wind Variable Wind from South
Gusts 34 mph

Today
High -- | Low -- °F
--% Chance of Precip.
Yesterday
High -- | Low -- °F
Precip. -- in
Pressure 29.75 in
Visibility 10.0 miles
Clouds Clear
Dew Point 25 °F
Humidity 18%
Rainfall 0.00 in
Snow Depth Not available.
6:14 AM 8:04 PM
Waning Crescent, 4% visible
METAR KCCY 241835Z AUTO 17025G30KT 10SM CLR 21/M04 A2975 RMK AO2
Pressure 29.75 in
Visibility 10.0 miles
Clouds Clear
Dew Point 25 °F
Humidity 18%
Rainfall 0.00 in
Snow Depth Not available.
6:14 AM 8:04 PM
Waning Crescent, 4% visible
METAR KCCY 241835Z AUTO 17025G30KT 10SM CLR 21/M04 A2975 RMK AO2

Get Your Daily Forecast Email!

Thanks for signing up!

Be on the lookout for a verification email in your inbox.

You'll start receiving severe weather alerts in your inbox..

×

10-Day Weather Forecast

Almanac

Astronomy

Apr. 24, 2017 Rise Set
Actual Time
Civil Twilight
Nautical Twilight
Astronomical Twilight
Moon
Length of Visible Light
Length of Day
Tomorrow will be .
, % of the Moon is Illuminated

Today's Extremes

State Highs State Lows

Community

WunderPhotos

WunderBlog® & News

Nearby

Air Quality

  Air Quality AQ Index Pollutant
Not available.

Snow Depth

Station Depth Elevation

Earthquake Activity

City Distance Mag. Time & Date
Minimum magnitude displayed is 2.5.

Coastal Water Temperatures

Place Temperature

Stations

Nearby Weather Stations

Station Location Temp. Windchill Dew Point Humidity Wind Precip. Elev Updated Type
                   

Watches & Warnings

Special Statement
Issued: 11:00 AM CDT Apr. 24, 2017 – National Weather Service

... Elevated fire danger this afternoon...

Strong south winds of 15 to 25 mph, gusting to 35 mph, and low
relative humidity will create elevated fire danger across the area
this afternoon. Fires could start easily and spread quickly.

Check with local authorities before considering any outdoor
burning activities. Be very careful with hot equipment near dry
grassy areas and do not throw cigarettes out of your window.
Conditions will improve this evening.


Boyne

434 am CDT Mon Apr 24 2017

... Elevated fire danger today...

Strong south winds of 15 to 25 mph, gusting to 35 mph, and low
relative humidity will create elevated fire danger across the area
today. Fires could start easily and spread quickly. Check with
local authorities before considering any outdoor burning
activities. Be very careful with hot equipment near dry grassy
areas and do not throw cigarettes out of your window. Conditions
will improve later this evening.


Wetenkamp